McClure, Ohio
Current Conditions -  °F | °C
As of 8:52 AM on Friday 24 Oct 2014 (Local Time) from KTOL Reporting Station
Haze Haze  
Wind Chill: 37°   Ceiling: Unl
Heat Index: 37°   Visibility: 3mi
Dew Point: 35°   Wind: 0mph
Humidity: 93%   Direction: NA
Pressure: 30.1"   Gusts: NA
Location:  41.37°N, 83.94°W
Report Text: KTOL 241252Z 00000KT 3SM BR CLR 03/02 A3010 RMK AO2 SLP198 T00280017
Loading
Personal Weather Stations






























Interactive Weather Map
Tropical Storm Tracking
New forecast layout! Learn more

10-Day Weather Forecast

Advertisements
Track Severe Weather on mobile